Rinely, Pennsylvania
Current Conditions -  °F | °C
As of 9:53 AM on Monday 24 Nov 2014 (Local Time) from KTHV Reporting Station
Clear Clear  
Wind Chill: 66°   Ceiling: Unl
Heat Index: 66°   Visibility: 10mi
Dew Point: 57°   Wind: 13mph
Humidity: 73%   Direction: 210°SSW
Pressure: 29.62"   Gusts: 28mph
Location:  39.7708°N, 76.5918°W
Report Text: KTHV 241453Z AUTO 21011G24KT 10SM CLR 19/14 A2962 RMK AO2 PK WND 20026/1435 SLP033 T01890139 50004
Loading
Personal Weather Stations






























Interactive Weather Map New forecast layout! Learn more

10-Day Weather Forecast

Advertisements
Track Severe Weather on mobile